createdAt,value
2023-05-18T00:00:14.535Z,31.05
2023-05-18T00:02:43.918Z,28.08
2023-05-18T00:07:41.283Z,28.10
2023-05-18T00:10:12.445Z,25.20
2023-05-18T00:12:41.738Z,22.52
2023-05-18T00:15:11.582Z,25.13
2023-05-18T00:17:40.299Z,24.33
2023-05-18T00:20:09.923Z,24.50
2023-05-18T00:22:39.297Z,20.48
2023-05-18T00:25:08.225Z,24.38
2023-05-18T00:30:07.146Z,21.08
2023-05-18T00:32:37.905Z,23.67
2023-05-18T00:35:07.700Z,20.08
2023-05-18T00:37:36.275Z,22.88
2023-05-18T00:40:06.777Z,24.17
2023-05-18T00:42:35.204Z,20.60
2023-05-18T00:45:05.795Z,20.13
2023-05-18T00:47:34.555Z,20.02
2023-05-18T00:50:03.339Z,21.58
2023-05-18T00:52:34.134Z,24.73
2023-05-18T00:55:03.024Z,26.42
2023-05-18T00:57:33.744Z,26.25
2023-05-18T01:00:02.534Z,22.27
2023-05-18T01:02:37.302Z,23.90
2023-05-18T01:05:06.577Z,24.98
2023-05-18T01:07:35.139Z,20.08
2023-05-18T01:10:03.867Z,22.38
2023-05-18T01:15:10.006Z,20.25
2023-05-18T01:18:00.913Z,21.67
2023-05-18T01:20:38.229Z,20.58
2023-05-18T01:23:20.786Z,22.60
2023-05-18T01:25:55.538Z,21.20
2023-05-18T01:28:31.344Z,25.33
2023-05-18T01:31:00.855Z,27.08
2023-05-18T01:33:29.436Z,24.70
2023-05-18T01:35:57.998Z,23.77
2023-05-18T01:38:29.530Z,22.33
2023-05-18T01:41:05.010Z,24.65
2023-05-18T01:43:36.583Z,24.00
2023-05-18T01:46:15.069Z,21.27
2023-05-18T01:48:49.836Z,22.45
2023-05-18T01:51:22.407Z,24.70
2023-05-18T01:53:58.805Z,19.10
2023-05-18T01:56:28.739Z,24.45
2023-05-18T01:58:59.646Z,21.58
2023-05-18T02:01:28.557Z,24.52
2023-05-18T02:06:25.663Z,22.13
2023-05-18T02:08:55.153Z,23.27
2023-05-18T02:11:23.758Z,23.05
2023-05-18T02:13:53.012Z,22.75
2023-05-18T02:16:23.124Z,24.30
2023-05-18T02:18:54.235Z,22.35
2023-05-18T02:21:23.089Z,24.08
2023-05-18T02:23:51.671Z,29.05
2023-05-18T02:26:20.199Z,20.45
2023-05-18T02:28:54.760Z,23.30
2023-05-18T02:31:24.947Z,22.58
2023-05-18T02:33:57.185Z,23.08
2023-05-18T02:36:25.869Z,27.77
2023-05-18T02:38:57.678Z,26.25
2023-05-18T02:41:28.130Z,20.65
2023-05-18T02:43:56.822Z,21.35
2023-05-18T02:46:28.941Z,20.95
2023-05-18T02:48:57.722Z,25.10
2023-05-18T02:51:26.876Z,22.05
2023-05-18T02:53:56.037Z,21.80
2023-05-18T02:56:25.323Z,21.88
2023-05-18T02:59:06.075Z,19.63
2023-05-18T03:01:43.088Z,23.80
2023-05-18T03:04:14.179Z,21.35
2023-05-18T03:06:53.034Z,25.83
2023-05-18T03:09:23.774Z,19.85
2023-05-18T03:11:55.221Z,20.77
2023-05-18T03:14:23.957Z,21.10
2023-05-18T03:19:27.263Z,20.55
2023-05-18T03:21:58.040Z,22.00
2023-05-18T03:24:30.607Z,19.92
2023-05-18T03:27:02.595Z,18.95
2023-05-18T03:29:31.718Z,20.38
2023-05-18T03:32:05.280Z,21.50
2023-05-18T03:34:35.292Z,19.88
2023-05-18T03:37:04.286Z,20.35
2023-05-18T03:39:34.707Z,19.00
2023-05-18T03:42:03.450Z,24.15
2023-05-18T03:47:00.892Z,22.95
2023-05-18T03:49:31.005Z,23.35
2023-05-18T03:52:00.225Z,24.83
2023-05-18T03:56:57.203Z,21.85
2023-05-18T03:59:25.789Z,22.02
2023-05-18T04:01:54.841Z,28.85
2023-05-18T04:04:27.706Z,26.10
2023-05-18T04:06:58.010Z,21.15
2023-05-18T04:09:28.167Z,21.98
2023-05-18T04:11:57.044Z,22.67
2023-05-18T04:14:28.349Z,21.25
2023-05-18T04:16:58.470Z,22.20
2023-05-18T04:19:27.240Z,22.92
2023-05-18T04:24:27.045Z,22.20
2023-05-18T04:26:56.219Z,21.73
2023-05-18T04:29:24.966Z,20.25
2023-05-18T04:31:53.814Z,21.75
2023-05-18T04:34:22.375Z,16.38
2023-05-18T04:36:50.925Z,21.00
2023-05-18T04:39:19.658Z,20.02
2023-05-18T04:41:50.687Z,21.95
2023-05-18T04:44:20.344Z,30.20
2023-05-18T04:46:49.118Z,17.05
2023-05-18T04:49:26.437Z,18.70
2023-05-18T04:51:59.184Z,25.45
2023-05-18T04:54:32.036Z,18.00
2023-05-18T04:57:03.587Z,20.40
2023-05-18T04:59:37.094Z,21.08
2023-05-18T05:02:06.643Z,19.60
2023-05-18T05:04:35.289Z,17.45
2023-05-18T05:07:04.360Z,23.38
2023-05-18T05:09:33.052Z,15.38
2023-05-18T05:12:03.532Z,16.65
2023-05-18T05:14:32.185Z,14.45
2023-05-18T05:17:00.689Z,16.13
2023-05-18T05:21:58.245Z,17.90
2023-05-18T05:24:26.988Z,16.30
2023-05-18T05:29:26.575Z,13.90
2023-05-18T05:31:55.987Z,16.10
2023-05-18T05:34:25.032Z,12.45
2023-05-18T05:39:22.254Z,16.50
2023-05-18T05:41:51.758Z,25.00
2023-05-18T05:44:20.505Z,13.80
2023-05-18T05:46:50.817Z,19.33
2023-05-18T05:49:20.199Z,11.48
2023-05-18T05:51:49.012Z,16.15
2023-05-18T05:54:18.046Z,14.63
2023-05-18T05:59:22.748Z,14.75
2023-05-18T06:01:52.977Z,14.55
2023-05-18T06:04:22.383Z,10.73
2023-05-18T06:06:51.387Z,13.30
2023-05-18T06:09:20.320Z,15.55
2023-05-18T06:11:50.773Z,15.52
2023-05-18T06:14:19.918Z,17.75
2023-05-18T06:21:47.634Z,12.63
2023-05-18T06:24:16.669Z,12.68
2023-05-18T06:27:04.314Z,14.25
2023-05-18T06:29:42.613Z,12.38
2023-05-18T06:32:46.715Z,12.95
2023-05-18T06:37:46.923Z,12.43
2023-05-18T06:40:16.345Z,10.30
2023-05-18T06:42:45.054Z,9.55
2023-05-18T06:45:39.586Z,14.25
2023-05-18T06:48:15.282Z,10.50
2023-05-18T06:50:45.295Z,11.32
2023-05-18T06:53:14.259Z,13.10
2023-05-18T06:55:42.873Z,26.35
2023-05-18T06:58:11.907Z,10.35
2023-05-18T07:00:40.775Z,11.90
2023-05-18T07:03:11.249Z,10.50
2023-05-18T07:05:39.981Z,9.23
2023-05-18T07:08:10.012Z,11.98
2023-05-18T07:10:38.866Z,9.38
2023-05-18T07:13:07.378Z,6.88
2023-05-18T07:18:05.355Z,9.35
2023-05-18T07:20:33.976Z,10.38
2023-05-18T07:23:02.448Z,7.30
2023-05-18T07:25:33.076Z,11.20
2023-05-18T07:28:01.797Z,9.75
2023-05-18T07:30:30.821Z,8.70
2023-05-18T07:35:27.633Z,8.20
2023-05-18T07:37:56.316Z,8.35
2023-05-18T07:40:24.930Z,10.32
2023-05-18T07:45:24.058Z,11.07
2023-05-18T07:47:52.740Z,10.05
2023-05-18T07:50:21.568Z,12.68
2023-05-18T07:55:18.875Z,10.00
2023-05-18T07:57:47.865Z,8.90
2023-05-18T08:02:48.243Z,10.90
2023-05-18T08:05:16.942Z,8.40
2023-05-18T08:10:13.730Z,9.02
2023-05-18T08:15:11.676Z,9.68
2023-05-18T08:17:41.783Z,10.88
2023-05-18T08:20:11.915Z,12.75
2023-05-18T08:22:40.657Z,8.98
2023-05-18T08:27:38.977Z,11.05
2023-05-18T08:32:37.724Z,10.93
2023-05-18T08:35:10.212Z,7.40
2023-05-18T08:37:39.915Z,18.55
2023-05-18T08:40:11.495Z,9.07
2023-05-18T08:42:50.366Z,9.63
2023-05-18T08:45:30.375Z,8.85
2023-05-18T08:48:03.506Z,10.82
2023-05-18T08:50:34.310Z,7.85
2023-05-18T08:53:06.789Z,8.18
2023-05-18T08:55:37.278Z,10.38
2023-05-18T08:58:09.137Z,11.40
2023-05-18T09:00:38.398Z,11.80
2023-05-18T09:03:07.510Z,10.88
2023-05-18T09:05:37.932Z,10.88
2023-05-18T09:08:08.434Z,11.90
2023-05-18T09:10:38.239Z,12.25
2023-05-18T09:13:07.732Z,9.68
2023-05-18T09:15:36.544Z,14.13
2023-05-18T09:18:05.322Z,10.38
2023-05-18T09:20:34.018Z,10.73
2023-05-18T09:25:35.291Z,9.65
2023-05-18T09:28:05.224Z,11.00
2023-05-18T09:30:41.623Z,15.38
2023-05-18T09:33:19.194Z,8.82
2023-05-18T09:35:48.242Z,10.13
2023-05-18T09:38:22.093Z,8.40
2023-05-18T09:40:51.949Z,7.82
2023-05-18T09:43:20.707Z,8.13
2023-05-18T09:45:50.864Z,9.68
2023-05-18T09:48:19.402Z,9.70
2023-05-18T09:50:47.924Z,9.65
2023-05-18T09:55:50.497Z,9.15
2023-05-18T09:58:19.169Z,15.50
2023-05-18T10:03:22.331Z,17.17
2023-05-18T10:05:51.763Z,10.02
2023-05-18T10:08:20.306Z,10.98
2023-05-18T10:13:21.013Z,8.63
2023-05-18T10:15:52.119Z,7.93
2023-05-18T10:18:24.321Z,8.38
2023-05-18T10:20:55.548Z,14.98
2023-05-18T10:23:26.165Z,8.68
2023-05-18T10:25:56.360Z,10.50
2023-05-18T10:28:28.981Z,13.38
2023-05-18T10:30:59.613Z,7.28
2023-05-18T10:33:30.486Z,14.65
2023-05-18T10:35:59.415Z,10.52
2023-05-18T10:38:29.233Z,8.70
2023-05-18T10:41:01.484Z,9.15
2023-05-18T10:43:30.816Z,8.02
2023-05-18T10:46:04.667Z,7.80
2023-05-18T10:48:33.304Z,14.10
2023-05-18T10:51:05.688Z,8.38
2023-05-18T10:53:34.845Z,12.43
2023-05-18T10:56:04.830Z,10.10
2023-05-18T10:58:36.706Z,11.98
2023-05-18T11:01:08.520Z,9.60
2023-05-18T11:03:39.633Z,7.50
2023-05-18T11:06:10.706Z,10.57
2023-05-18T11:08:47.881Z,11.60
2023-05-18T11:11:19.996Z,8.60
2023-05-18T11:13:51.559Z,9.55
2023-05-18T11:16:23.196Z,9.27
2023-05-18T11:18:54.385Z,9.07
2023-05-18T11:21:35.276Z,9.57
2023-05-18T11:24:26.988Z,8.60
2023-05-18T11:27:01.182Z,9.85
2023-05-18T11:29:37.305Z,7.18
2023-05-18T11:32:06.809Z,10.98
2023-05-18T11:34:48.362Z,7.97
2023-05-18T11:37:17.977Z,8.88
2023-05-18T11:39:59.660Z,9.82
2023-05-18T11:42:35.367Z,8.57
2023-05-18T11:45:11.696Z,11.52
2023-05-18T11:47:41.500Z,10.43
2023-05-18T11:50:12.540Z,7.93
2023-05-18T11:52:48.809Z,7.57
2023-05-18T11:55:21.271Z,10.23
2023-05-18T11:57:53.560Z,9.35
2023-05-18T12:00:22.853Z,8.77
2023-05-18T12:02:52.923Z,10.90
2023-05-18T12:05:24.388Z,10.15
2023-05-18T12:07:54.898Z,12.45
2023-05-18T12:10:23.770Z,10.00
2023-05-18T12:12:58.795Z,9.18
2023-05-18T12:15:34.614Z,9.32
2023-05-18T12:18:03.148Z,10.05
2023-05-18T12:23:01.293Z,9.23
2023-05-18T12:25:30.130Z,10.90
2023-05-18T12:28:00.702Z,8.80
2023-05-18T12:30:35.884Z,10.18
2023-05-18T12:33:05.389Z,8.10
2023-05-18T12:35:36.795Z,9.20
2023-05-18T12:38:05.407Z,8.63
2023-05-18T12:40:46.707Z,11.52
2023-05-18T12:43:16.888Z,10.70
2023-05-18T12:45:47.115Z,12.95
2023-05-18T12:48:16.172Z,7.88
2023-05-18T12:50:51.589Z,13.15
2023-05-18T12:53:21.035Z,12.55
2023-05-18T12:55:58.282Z,12.52
2023-05-18T12:58:28.342Z,8.95
2023-05-18T13:00:57.179Z,9.00
2023-05-18T13:03:26.196Z,9.05
2023-05-18T13:06:09.919Z,8.65
2023-05-18T13:08:38.720Z,9.85
2023-05-18T13:11:14.238Z,10.13
2023-05-18T13:14:03.565Z,11.88
2023-05-18T13:16:32.969Z,8.70
2023-05-18T13:19:04.105Z,9.75
2023-05-18T13:21:32.897Z,8.35
2023-05-18T13:26:31.879Z,7.45
2023-05-18T13:29:01.288Z,10.57
2023-05-18T13:31:31.252Z,10.95
2023-05-18T13:33:59.880Z,15.50
2023-05-18T13:36:29.782Z,10.50
2023-05-18T13:38:58.470Z,9.25
2023-05-18T13:41:27.391Z,15.25
2023-05-18T13:43:55.903Z,10.55
2023-05-18T13:46:25.485Z,8.30
2023-05-18T13:48:55.386Z,9.65
2023-05-18T13:51:23.859Z,7.53
2023-05-18T13:53:52.336Z,10.52
2023-05-18T13:56:21.258Z,11.93
2023-05-18T13:58:50.281Z,11.23
2023-05-18T14:01:22.389Z,11.90
2023-05-18T14:03:50.964Z,8.18
2023-05-18T14:06:21.448Z,10.98
2023-05-18T14:08:52.335Z,13.23
2023-05-18T14:11:21.788Z,9.30
2023-05-18T14:13:50.520Z,9.05
2023-05-18T14:16:19.040Z,8.70
2023-05-18T14:18:47.479Z,8.52
2023-05-18T14:21:15.915Z,8.68
2023-05-18T14:23:47.825Z,9.82
2023-05-18T14:26:20.632Z,14.43
2023-05-18T14:28:49.164Z,9.55
2023-05-18T14:31:20.150Z,10.95
2023-05-18T14:33:48.937Z,13.52
2023-05-18T14:38:48.229Z,9.07
2023-05-18T14:41:16.781Z,15.68
2023-05-18T14:43:46.714Z,10.00
2023-05-18T14:46:17.441Z,8.38
2023-05-18T14:48:46.027Z,10.68
2023-05-18T14:51:16.089Z,10.60
2023-05-18T14:53:44.569Z,8.07
2023-05-18T14:56:16.232Z,11.00
2023-05-18T14:58:47.863Z,9.00
2023-05-18T15:01:16.456Z,9.93
2023-05-18T15:03:45.121Z,8.35
2023-05-18T15:06:13.997Z,7.80
2023-05-18T15:11:10.713Z,9.27
2023-05-18T15:13:42.610Z,16.83
2023-05-18T15:16:11.173Z,8.35
2023-05-18T15:18:39.696Z,9.57
2023-05-18T15:21:08.158Z,10.40
2023-05-18T15:23:36.587Z,7.05
2023-05-18T15:26:06.748Z,8.20
2023-05-18T15:28:37.420Z,7.55
2023-05-18T15:31:07.363Z,11.73
2023-05-18T15:33:36.876Z,9.80
2023-05-18T15:36:06.164Z,7.20
2023-05-18T15:38:34.621Z,15.43
2023-05-18T15:41:04.462Z,23.20
2023-05-18T15:43:33.827Z,9.93
2023-05-18T15:46:02.541Z,11.25
2023-05-18T15:48:32.603Z,5.68
2023-05-18T15:51:01.099Z,10.10
2023-05-18T15:53:29.560Z,8.10
2023-05-18T15:55:59.484Z,10.65
2023-05-18T15:58:28.442Z,7.22
2023-05-18T16:00:57.208Z,5.97
2023-05-18T16:03:26.047Z,12.55
2023-05-18T16:08:24.259Z,9.35
2023-05-18T16:10:52.738Z,13.38
2023-05-18T16:13:23.806Z,9.77
2023-05-18T16:15:54.375Z,11.18
2023-05-18T16:18:22.908Z,9.40
2023-05-18T16:20:51.482Z,13.45
2023-05-18T16:23:21.440Z,8.52
2023-05-18T16:25:50.234Z,11.40
2023-05-18T16:30:47.079Z,11.95
2023-05-18T16:33:16.951Z,10.60
2023-05-18T16:35:45.500Z,9.00
2023-05-18T16:38:14.352Z,7.88
2023-05-18T16:40:44.366Z,9.85
2023-05-18T16:43:12.812Z,13.18
2023-05-18T16:45:42.542Z,10.57
2023-05-18T16:48:11.227Z,11.18
2023-05-18T16:50:39.658Z,10.55
2023-05-18T16:53:08.029Z,10.40
2023-05-18T16:55:36.584Z,11.27
2023-05-18T16:58:09.744Z,9.43
2023-05-18T17:00:38.249Z,8.70
2023-05-18T17:03:07.099Z,13.15
2023-05-18T17:05:36.088Z,10.32
2023-05-18T17:08:04.677Z,11.02
2023-05-18T17:13:05.666Z,9.30
2023-05-18T17:15:34.613Z,10.32
2023-05-18T17:18:03.126Z,10.63
2023-05-18T17:20:32.021Z,11.75
2023-05-18T17:23:02.009Z,6.35
2023-05-18T17:25:30.808Z,9.05
2023-05-18T17:27:59.645Z,10.00
2023-05-18T17:30:29.853Z,11.05
2023-05-18T17:32:58.608Z,13.27
2023-05-18T17:35:27.018Z,7.95
2023-05-18T17:37:55.995Z,10.07
2023-05-18T17:40:27.329Z,10.70
2023-05-18T17:42:55.807Z,7.35
2023-05-18T17:45:24.276Z,6.65
2023-05-18T17:47:54.731Z,9.60
2023-05-18T17:50:26.059Z,14.07
2023-05-18T17:52:54.741Z,8.32
2023-05-18T17:55:23.274Z,11.35
2023-05-18T17:57:52.618Z,12.10
2023-05-18T18:00:22.340Z,8.23
2023-05-18T18:02:51.191Z,6.85
2023-05-18T18:07:49.837Z,9.73
2023-05-18T18:10:18.656Z,7.32
2023-05-18T18:12:47.216Z,11.27
2023-05-18T18:15:16.454Z,7.45
2023-05-18T18:17:45.185Z,11.88
2023-05-18T18:22:43.656Z,8.70
2023-05-18T18:25:12.442Z,10.85
2023-05-18T18:27:41.244Z,9.07
2023-05-18T18:32:39.659Z,8.48
2023-05-18T18:37:37.167Z,8.77
2023-05-18T18:42:36.885Z,13.02
2023-05-18T18:45:06.067Z,11.23
2023-05-18T18:47:35.425Z,11.43
2023-05-18T18:50:07.445Z,11.38
2023-05-18T18:52:36.197Z,11.63
2023-05-18T18:55:07.908Z,12.02
2023-05-18T18:57:36.505Z,10.48
2023-05-18T19:00:07.107Z,11.98
2023-05-18T19:02:38.178Z,8.75
2023-05-18T19:05:07.902Z,10.82
2023-05-18T19:07:37.217Z,14.80
2023-05-18T19:10:10.312Z,9.90
2023-05-18T19:12:39.085Z,9.07
2023-05-18T19:15:09.117Z,11.75
2023-05-18T19:17:37.834Z,10.32
2023-05-18T19:20:08.151Z,9.93
2023-05-18T19:22:37.571Z,9.77
2023-05-18T19:25:08.258Z,9.13
2023-05-18T19:27:37.207Z,14.48
2023-05-18T19:30:08.841Z,10.60
2023-05-18T19:32:40.832Z,12.25
2023-05-18T19:35:10.040Z,10.52
2023-05-18T19:37:38.497Z,12.00
2023-05-18T19:40:09.501Z,11.80
2023-05-18T19:42:38.179Z,10.98
2023-05-18T19:45:07.944Z,13.85
2023-05-18T19:47:37.584Z,13.27
2023-05-18T19:50:07.255Z,12.23
2023-05-18T19:52:36.294Z,12.32
2023-05-18T19:55:05.333Z,9.63
2023-05-18T19:57:36.306Z,17.63
2023-05-18T20:00:08.035Z,10.18
2023-05-18T20:02:41.242Z,12.60
2023-05-18T20:05:12.746Z,15.23
2023-05-18T20:07:41.982Z,11.10
2023-05-18T20:12:41.096Z,13.20
2023-05-18T20:15:10.500Z,11.85
2023-05-18T20:17:39.192Z,14.18
2023-05-18T20:22:37.217Z,18.25
2023-05-18T20:25:06.604Z,12.57
2023-05-18T20:27:35.297Z,12.13
2023-05-18T20:30:06.001Z,15.18
2023-05-18T20:33:04.958Z,13.77
2023-05-18T20:35:34.858Z,11.93
2023-05-18T20:38:07.540Z,14.27
2023-05-18T20:40:38.068Z,16.77
2023-05-18T20:43:10.088Z,12.15
2023-05-18T20:45:42.411Z,12.18
2023-05-18T20:48:12.328Z,10.30
2023-05-18T20:50:41.253Z,12.75
2023-05-18T20:55:50.004Z,14.07
2023-05-18T20:58:19.282Z,14.73
2023-05-18T21:00:51.065Z,12.07
2023-05-18T21:03:20.207Z,12.50
2023-05-18T21:05:50.084Z,11.80
2023-05-18T21:08:18.953Z,11.70
2023-05-18T21:13:18.161Z,13.05
2023-05-18T21:15:46.958Z,12.68
2023-05-18T21:20:45.821Z,14.45
2023-05-18T21:23:14.577Z,11.27
2023-05-18T21:25:43.189Z,11.68
2023-05-18T21:28:11.703Z,13.95
2023-05-18T21:30:41.150Z,11.27
2023-05-18T21:33:10.049Z,14.00
2023-05-18T21:38:09.865Z,10.90
2023-05-18T21:40:43.501Z,12.43
2023-05-18T21:43:12.862Z,12.77
2023-05-18T21:45:43.682Z,12.77
2023-05-18T21:50:41.843Z,12.27
2023-05-18T21:53:10.852Z,16.08
2023-05-18T21:58:07.720Z,9.95
2023-05-18T22:00:37.756Z,11.02
2023-05-18T22:03:08.248Z,16.20
2023-05-18T22:05:36.904Z,12.85
2023-05-18T22:08:07.123Z,12.77
2023-05-18T22:10:35.844Z,12.77
2023-05-18T22:13:04.474Z,11.75
2023-05-18T22:15:33.792Z,11.68
2023-05-18T22:18:02.584Z,11.20
2023-05-18T22:20:32.078Z,13.02
2023-05-18T22:23:01.016Z,10.13
2023-05-18T22:25:42.403Z,16.77
2023-05-18T22:28:11.082Z,16.08
2023-05-18T22:30:40.134Z,12.98
2023-05-18T22:33:08.849Z,15.93
2023-05-18T22:38:06.887Z,14.18
2023-05-18T22:40:36.843Z,14.43
2023-05-18T22:43:05.456Z,21.15
2023-05-18T22:45:34.288Z,12.10
2023-05-18T22:50:33.360Z,11.23
2023-05-18T22:53:03.248Z,12.65
2023-05-18T22:55:33.057Z,12.45
2023-05-18T22:58:03.106Z,12.80
2023-05-18T23:00:32.085Z,13.52
2023-05-18T23:03:01.304Z,15.27
2023-05-18T23:05:30.048Z,15.18
2023-05-18T23:07:59.304Z,16.63
2023-05-18T23:10:30.976Z,15.38
2023-05-18T23:13:00.031Z,14.13
2023-05-18T23:18:04.339Z,14.60
2023-05-18T23:23:03.493Z,15.02
2023-05-18T23:28:00.350Z,13.88
2023-05-18T23:30:32.257Z,14.88
2023-05-18T23:33:01.891Z,14.55
2023-05-18T23:35:31.243Z,14.30
2023-05-18T23:38:06.497Z,15.57
2023-05-18T23:40:35.854Z,14.68
2023-05-18T23:43:04.804Z,11.25
2023-05-18T23:45:35.869Z,16.38
2023-05-18T23:48:05.736Z,14.98
2023-05-18T23:50:35.038Z,18.42
2023-05-18T23:53:05.664Z,15.43
2023-05-18T23:55:36.688Z,13.93
2023-05-18T23:58:06.444Z,12.52
